createdAt,value
2018-12-10T00:00:26.523Z,99.99
2018-12-10T00:01:26.538Z,99.99
2018-12-10T00:02:26.558Z,99.99
2018-12-10T00:03:26.572Z,99.99
2018-12-10T00:04:26.588Z,99.99
2018-12-10T00:05:26.606Z,99.99
2018-12-10T00:06:26.622Z,99.99
2018-12-10T00:07:26.638Z,99.99
2018-12-10T00:08:26.653Z,99.99
2018-12-10T00:09:26.671Z,99.99
2018-12-10T00:10:26.684Z,99.99
2018-12-10T00:11:26.711Z,99.99
2018-12-10T00:12:26.767Z,99.99
2018-12-10T00:13:41.396Z,99.99
2018-12-10T00:14:26.750Z,99.99
2018-12-10T00:15:26.768Z,99.99
2018-12-10T00:16:26.782Z,99.99
2018-12-10T00:17:26.798Z,99.99
2018-12-10T00:19:26.829Z,99.99
2018-12-10T00:20:26.846Z,99.99
2018-12-10T00:21:26.861Z,99.99
2018-12-10T00:22:26.880Z,99.99
2018-12-10T00:23:26.896Z,99.99
2018-12-10T00:24:26.911Z,99.99
2018-12-10T00:25:26.927Z,99.99
2018-12-10T00:26:26.941Z,99.99
2018-12-10T00:27:26.962Z,99.99
2018-12-10T00:28:26.977Z,99.99
2018-12-10T00:29:26.993Z,99.99
2018-12-10T00:30:27.008Z,99.99
2018-12-10T00:31:27.026Z,99.99
2018-12-10T00:32:27.037Z,99.99
2018-12-10T00:33:27.057Z,99.99
2018-12-10T00:34:27.077Z,99.99
2018-12-10T00:35:27.088Z,99.99
2018-12-10T00:37:27.116Z,99.99
2018-12-10T00:38:27.134Z,99.99
2018-12-10T00:39:27.150Z,99.99
2018-12-10T00:41:27.228Z,99.99
2018-12-10T00:42:27.199Z,99.99
2018-12-10T00:43:27.216Z,99.99
2018-12-10T00:44:27.231Z,99.99
2018-12-10T00:45:41.905Z,99.99
2018-12-10T00:46:27.259Z,99.99
2018-12-10T00:47:27.278Z,99.99
2018-12-10T00:48:27.290Z,99.99
2018-12-10T00:49:27.307Z,99.99
2018-12-10T00:50:27.327Z,99.99
2018-12-10T00:51:27.341Z,99.99
2018-12-10T00:52:27.354Z,99.99
2018-12-10T00:53:27.421Z,99.99
2018-12-10T00:54:27.390Z,99.99
2018-12-10T00:55:27.401Z,99.99
2018-12-10T00:56:27.419Z,99.99
2018-12-10T00:57:27.434Z,99.99
2018-12-10T00:58:27.451Z,99.99
2018-12-10T01:00:27.481Z,99.99
2018-12-10T01:01:42.161Z,99.99
2018-12-10T01:02:27.562Z,99.99
2018-12-10T01:03:27.533Z,99.99
2018-12-10T01:04:27.548Z,99.99
2018-12-10T01:05:27.567Z,99.99
2018-12-10T01:06:27.607Z,99.99
2018-12-10T01:07:27.594Z,99.99
2018-12-10T01:08:27.610Z,99.99
2018-12-10T01:09:27.638Z,99.99
2018-12-10T01:10:27.642Z,99.99
2018-12-10T01:11:27.653Z,99.99
2018-12-10T01:12:27.675Z,99.99
2018-12-10T01:13:27.757Z,99.99
2018-12-10T01:14:27.728Z,99.99
2018-12-10T01:15:27.724Z,99.99
2018-12-10T01:16:27.741Z,99.99
2018-12-10T01:17:42.412Z,99.99
2018-12-10T01:18:27.766Z,99.99
2018-12-10T01:19:27.835Z,99.99
2018-12-10T01:20:27.807Z,99.99
2018-12-10T01:21:27.815Z,99.99
2018-12-10T01:22:27.829Z,99.99
2018-12-10T01:23:27.851Z,99.99
2018-12-10T01:24:27.913Z,99.99
2018-12-10T01:25:27.878Z,99.99
2018-12-10T01:26:27.898Z,99.99
2018-12-10T01:27:27.909Z,99.99
2018-12-10T01:28:27.926Z,99.99
2018-12-10T01:29:27.941Z,99.99
2018-12-10T01:30:27.957Z,99.99
2018-12-10T01:31:27.971Z,99.99
2018-12-10T01:32:27.997Z,99.99
2018-12-10T01:33:42.668Z,99.99
2018-12-10T01:34:28.022Z,99.99
2018-12-10T01:35:28.087Z,99.99
2018-12-10T01:36:28.051Z,99.99
2018-12-10T01:37:28.068Z,99.99
2018-12-10T01:38:28.083Z,99.99
2018-12-10T01:39:28.100Z,99.99
2018-12-10T01:40:28.113Z,99.99
2018-12-10T01:41:28.130Z,99.99
2018-12-10T01:42:28.155Z,99.99
2018-12-10T01:43:28.163Z,99.99
2018-12-10T01:45:28.193Z,99.99
2018-12-10T01:46:28.225Z,99.99
2018-12-10T01:47:28.228Z,99.99
2018-12-10T01:48:42.956Z,99.99
2018-12-10T01:49:28.266Z,99.99
2018-12-10T01:51:28.291Z,99.99
2018-12-10T01:52:28.307Z,99.99
2018-12-10T01:53:28.320Z,99.99
2018-12-10T01:54:28.335Z,99.99
2018-12-10T01:55:28.351Z,99.99
2018-12-10T01:56:28.365Z,99.99
2018-12-10T01:57:28.383Z,99.99
2018-12-10T01:58:28.400Z,99.99
2018-12-10T01:59:28.515Z,99.99
2018-12-10T02:00:28.431Z,99.99
2018-12-10T02:01:28.446Z,99.99
2018-12-10T02:02:28.462Z,99.99
2018-12-10T02:03:28.526Z,99.99
2018-12-10T02:04:28.493Z,99.99
2018-12-10T02:05:28.558Z,99.99
2018-12-10T02:06:28.526Z,99.99
2018-12-10T02:07:28.541Z,99.99
2018-12-10T02:08:28.555Z,99.99
2018-12-10T02:09:28.569Z,99.99
2018-12-10T02:10:28.587Z,99.99
2018-12-10T02:11:28.603Z,99.99
2018-12-10T02:12:28.618Z,99.99
2018-12-10T02:13:28.632Z,99.99
2018-12-10T02:15:28.667Z,99.99
2018-12-10T02:16:28.681Z,99.99
2018-12-10T02:17:28.698Z,99.99
2018-12-10T02:18:28.712Z,99.99
2018-12-10T02:19:28.726Z,99.99
2018-12-10T02:20:43.404Z,99.99
2018-12-10T02:21:28.761Z,99.99
2018-12-10T02:22:28.825Z,99.99
2018-12-10T02:23:28.839Z,99.99
2018-12-10T02:24:28.809Z,99.99
2018-12-10T02:25:28.822Z,99.99
2018-12-10T02:26:28.838Z,99.99
2018-12-10T02:27:28.851Z,99.99
2018-12-10T02:28:28.868Z,99.99
2018-12-10T02:29:28.884Z,99.99
2018-12-10T02:31:28.924Z,99.99
2018-12-10T02:32:28.931Z,99.99
2018-12-10T02:33:28.946Z,99.99
2018-12-10T02:34:28.965Z,99.99
2018-12-10T02:35:28.978Z,99.99
2018-12-10T02:36:43.654Z,99.99
2018-12-10T02:37:29.013Z,99.99
2018-12-10T02:38:29.024Z,99.99
2018-12-10T02:39:29.038Z,99.99
2018-12-10T02:40:29.062Z,99.99
2018-12-10T02:41:29.070Z,99.99
2018-12-10T02:42:29.139Z,99.99
2018-12-10T02:43:29.103Z,99.99
2018-12-10T02:44:29.119Z,99.99
2018-12-10T02:45:29.131Z,99.99
2018-12-10T02:46:29.201Z,99.99
2018-12-10T02:47:29.225Z,99.99
2018-12-10T02:48:28.936Z,99.99
2018-12-10T02:49:29.247Z,99.99
2018-12-10T02:50:29.216Z,99.99
2018-12-10T02:51:29.226Z,99.99
2018-12-10T02:52:43.910Z,99.99
2018-12-10T02:53:29.259Z,99.99
2018-12-10T02:54:29.278Z,99.99
2018-12-10T02:55:29.294Z,99.99
2018-12-10T02:56:29.312Z,99.99
2018-12-10T02:57:29.321Z,99.99
2018-12-10T02:58:29.434Z,99.99
2018-12-10T02:59:29.363Z,99.99
2018-12-10T03:00:29.372Z,99.99
2018-12-10T03:01:29.390Z,99.99
2018-12-10T03:02:29.406Z,99.99
2018-12-10T03:03:29.414Z,99.99
2018-12-10T03:04:29.432Z,99.99
2018-12-10T03:05:29.454Z,99.99
2018-12-10T03:06:29.464Z,99.99
2018-12-10T03:07:29.510Z,99.99
2018-12-10T03:08:44.159Z,99.99
2018-12-10T03:09:29.518Z,99.99
2018-12-10T03:10:29.527Z,99.99
2018-12-10T03:11:29.540Z,99.99
2018-12-10T03:12:29.558Z,99.99
2018-12-10T03:13:29.574Z,99.99
2018-12-10T03:14:29.590Z,99.99
2018-12-10T03:15:29.620Z,99.99
2018-12-10T03:16:29.621Z,99.99
2018-12-10T03:17:29.639Z,99.99
2018-12-10T03:18:29.728Z,99.99
2018-12-10T03:19:29.696Z,99.99
2018-12-10T03:20:29.685Z,99.99
2018-12-10T03:21:29.703Z,99.99
2018-12-10T03:22:29.731Z,99.99
2018-12-10T03:23:44.391Z,99.99
2018-12-10T03:24:29.761Z,99.99
2018-12-10T03:25:29.761Z,99.99
2018-12-10T03:26:29.882Z,99.99
2018-12-10T03:27:29.845Z,99.99
2018-12-10T03:28:29.811Z,99.99
2018-12-10T03:29:29.829Z,99.99
2018-12-10T03:30:29.853Z,99.99
2018-12-10T03:31:29.877Z,99.99
2018-12-10T03:32:29.881Z,99.99
2018-12-10T03:33:29.892Z,99.99
2018-12-10T03:34:29.911Z,99.99
2018-12-10T03:35:30.018Z,99.99
2018-12-10T03:36:29.931Z,99.99
2018-12-10T03:37:29.951Z,99.99
2018-12-10T03:38:29.965Z,99.99
2018-12-10T03:39:29.979Z,99.99
2018-12-10T03:40:29.994Z,99.99
2018-12-10T03:41:30.012Z,99.99
2018-12-10T03:42:30.028Z,99.99
2018-12-10T03:43:30.041Z,99.99
2018-12-10T03:44:30.086Z,99.99
2018-12-10T03:45:30.076Z,99.99
2018-12-10T03:46:30.087Z,99.99
2018-12-10T03:47:30.129Z,99.99
2018-12-10T03:48:30.119Z,99.99
2018-12-10T03:49:30.140Z,99.99
2018-12-10T03:51:30.164Z,99.99
2018-12-10T03:52:30.183Z,99.99
2018-12-10T03:53:30.202Z,99.99
2018-12-10T03:54:30.224Z,99.99
2018-12-10T03:55:44.890Z,99.99
2018-12-10T03:56:30.251Z,99.99
2018-12-10T03:57:30.330Z,99.99
2018-12-10T03:58:30.274Z,99.99
2018-12-10T03:59:30.291Z,99.99
2018-12-10T04:00:30.412Z,99.99
2018-12-10T04:01:30.325Z,99.99
2018-12-10T04:02:30.337Z,99.99
2018-12-10T04:03:30.356Z,99.99
2018-12-10T04:04:30.368Z,99.99
2018-12-10T04:07:30.422Z,99.99
2018-12-10T04:08:30.504Z,99.99
2018-12-10T04:10:30.624Z,99.99
2018-12-10T04:11:45.148Z,99.99
2018-12-10T04:12:30.493Z,99.99
2018-12-10T04:13:30.516Z,99.99
2018-12-10T04:14:30.527Z,99.99
2018-12-10T04:15:30.541Z,99.99
2018-12-10T04:16:30.556Z,99.99
2018-12-10T04:17:30.570Z,99.99
2018-12-10T04:18:30.590Z,99.99
2018-12-10T04:19:30.606Z,99.99
2018-12-10T04:20:30.624Z,99.99
2018-12-10T04:21:30.637Z,99.99
2018-12-10T04:22:30.658Z,99.99
2018-12-10T04:25:30.699Z,99.99
2018-12-10T04:26:30.712Z,99.99
2018-12-10T04:27:45.389Z,99.99
2018-12-10T04:28:30.743Z,99.99
2018-12-10T04:29:30.767Z,99.99
2018-12-10T04:30:30.785Z,99.99
2018-12-10T04:31:30.812Z,99.99
2018-12-10T04:32:30.807Z,99.99
2018-12-10T04:33:30.825Z,99.99
2018-12-10T04:34:30.844Z,99.99
2018-12-10T04:35:30.855Z,99.99
2018-12-10T04:36:30.870Z,99.99
2018-12-10T04:37:30.882Z,99.99
2018-12-10T04:38:30.900Z,99.99
2018-12-10T04:39:30.921Z,99.99
2018-12-10T04:40:30.935Z,99.99
2018-12-10T04:41:30.946Z,99.99
2018-12-10T04:42:30.960Z,99.99
2018-12-10T04:43:45.639Z,99.99
2018-12-10T04:44:30.996Z,99.99
2018-12-10T04:45:31.013Z,99.99
2018-12-10T04:46:31.024Z,99.99
2018-12-10T04:47:31.045Z,99.99
2018-12-10T04:48:31.168Z,99.99
2018-12-10T04:49:31.072Z,99.99
2018-12-10T04:50:31.087Z,99.99
2018-12-10T04:51:31.103Z,99.99
2018-12-10T04:52:31.123Z,99.99
2018-12-10T04:54:31.151Z,99.99
2018-12-10T04:55:31.165Z,99.99
2018-12-10T04:56:31.250Z,99.99
2018-12-10T04:57:31.204Z,99.99
2018-12-10T04:58:45.874Z,99.99
2018-12-10T04:59:31.227Z,99.99
2018-12-10T05:00:31.247Z,99.99
2018-12-10T05:01:31.263Z,99.99
2018-12-10T05:02:31.274Z,99.99
2018-12-10T05:03:31.342Z,99.99
2018-12-10T05:04:31.304Z,99.99
2018-12-10T05:05:31.322Z,99.99
2018-12-10T05:06:31.338Z,99.99
2018-12-10T05:07:31.353Z,99.99
2018-12-10T05:10:31.401Z,99.99
2018-12-10T05:11:31.467Z,99.99
2018-12-10T05:12:31.428Z,99.99
2018-12-10T05:13:31.444Z,99.99
2018-12-10T05:14:31.458Z,99.99
2018-12-10T05:15:31.474Z,99.99
2018-12-10T05:16:31.589Z,99.99
2018-12-10T05:17:31.560Z,99.99
2018-12-10T05:18:31.522Z,99.99
2018-12-10T05:19:31.536Z,99.99
2018-12-10T05:20:31.552Z,99.99
2018-12-10T05:21:31.571Z,99.99
2018-12-10T05:22:31.583Z,99.99
2018-12-10T05:24:31.613Z,99.99
2018-12-10T05:25:31.628Z,99.99
2018-12-10T05:27:31.710Z,99.99
2018-12-10T05:28:31.677Z,99.99
2018-12-10T05:29:31.691Z,99.99
2018-12-10T05:30:46.370Z,99.97
2018-12-10T05:31:31.723Z,99.99
2018-12-10T05:32:31.737Z,99.97
2018-12-10T05:33:31.753Z,99.99
2018-12-10T05:34:31.768Z,99.99
2018-12-10T05:35:31.785Z,99.99
2018-12-10T05:36:31.804Z,99.77
2018-12-10T05:37:31.815Z,99.77
2018-12-10T05:38:31.950Z,99.49
2018-12-10T05:39:31.847Z,99.68
2018-12-10T05:40:31.870Z,99.3
2018-12-10T05:42:31.895Z,99.87
2018-12-10T05:43:31.912Z,99.68
2018-12-10T05:44:31.926Z,99.87
2018-12-10T05:45:31.946Z,99.97
2018-12-10T05:46:46.620Z,99.99
2018-12-10T05:47:32.075Z,99.99
2018-12-10T05:48:31.985Z,99.99
2018-12-10T05:49:32.004Z,99.99
2018-12-10T05:50:32.020Z,99.99
2018-12-10T05:51:32.037Z,99.99
2018-12-10T05:52:32.049Z,99.99
2018-12-10T05:53:32.064Z,99.99
2018-12-10T05:54:32.081Z,99.99
2018-12-10T05:55:32.095Z,99.97
2018-12-10T05:56:32.109Z,99.99
2018-12-10T05:58:32.141Z,99.99
2018-12-10T06:00:32.170Z,99.99
2018-12-10T06:01:32.188Z,99.49
2018-12-10T06:02:46.862Z,99.97
2018-12-10T06:03:32.219Z,99.99
2018-12-10T06:04:32.233Z,99.99
2018-12-10T06:05:32.250Z,99.77
2018-12-10T06:06:32.386Z,99.77
2018-12-10T06:07:32.281Z,99.99
2018-12-10T06:08:32.305Z,99.77
2018-12-10T06:09:32.315Z,99.97
2018-12-10T06:10:32.325Z,99.99
2018-12-10T06:11:32.342Z,99.77
2018-12-10T06:12:32.355Z,99.49
2018-12-10T06:13:32.372Z,99.97
2018-12-10T06:14:32.391Z,99.99
2018-12-10T06:15:32.403Z,99.68
2018-12-10T06:16:32.419Z,99.77
2018-12-10T06:17:32.431Z,99.77
2018-12-10T06:18:47.111Z,99.68
2018-12-10T06:19:32.461Z,99.3
2018-12-10T06:20:32.481Z,99.58
2018-12-10T06:21:32.496Z,99.87
2018-12-10T06:22:32.625Z,99.99
2018-12-10T06:23:32.626Z,99.87
2018-12-10T06:24:32.601Z,99.11
2018-12-10T06:25:32.568Z,99.4
2018-12-10T06:27:32.641Z,99.97
2018-12-10T06:29:32.622Z,99.99
2018-12-10T06:30:32.634Z,99.99
2018-12-10T06:31:32.650Z,99.97
2018-12-10T06:32:32.666Z,99.97
2018-12-10T06:33:47.342Z,99.77
2018-12-10T06:34:32.698Z,99.77
2018-12-10T06:35:32.710Z,99.77
2018-12-10T06:36:32.727Z,99.77
2018-12-10T06:37:39.941Z,99.3
2018-12-10T06:38:32.759Z,99.4
2018-12-10T06:39:32.824Z,99.3
2018-12-10T06:40:32.790Z,99.68
2018-12-10T06:41:32.804Z,99.21
2018-12-10T06:42:32.818Z,99.3
2018-12-10T06:43:32.834Z,99.77
2018-12-10T06:44:32.848Z,99.68
2018-12-10T06:45:32.966Z,99.68
2018-12-10T06:46:32.886Z,99.3
2018-12-10T06:47:32.897Z,99.3
2018-12-10T06:48:32.911Z,99.87
2018-12-10T06:49:32.927Z,99.99
2018-12-10T06:50:32.939Z,99.87
2018-12-10T06:51:32.963Z,99.87
2018-12-10T06:52:32.973Z,99.99
2018-12-10T06:53:33.044Z,99.99
2018-12-10T06:54:33.005Z,99.99
2018-12-10T06:56:33.038Z,99.99
2018-12-10T06:57:33.050Z,99.99
2018-12-10T06:58:33.073Z,99.99
2018-12-10T06:59:33.090Z,99.99
2018-12-10T07:00:33.097Z,99.99
2018-12-10T07:01:33.111Z,99.99
2018-12-10T07:02:33.125Z,99.99
2018-12-10T07:03:33.149Z,99.99
2018-12-10T07:04:33.156Z,99.99
2018-12-10T07:05:47.834Z,99.99
2018-12-10T07:06:33.189Z,99.99
2018-12-10T07:07:33.261Z,99.99
2018-12-10T07:08:33.218Z,99.99
2018-12-10T07:09:33.283Z,99.99
2018-12-10T07:10:33.249Z,99.99
2018-12-10T07:11:33.270Z,99.99
2018-12-10T07:12:33.379Z,99.99
2018-12-10T07:13:33.297Z,99.91
2018-12-10T07:14:33.310Z,99.99
2018-12-10T07:15:33.327Z,99.99
2018-12-10T07:16:33.343Z,99.99
2018-12-10T07:17:33.360Z,99.99
2018-12-10T07:18:33.375Z,99.99
2018-12-10T07:19:33.386Z,99.99
2018-12-10T07:20:33.401Z,99.99
2018-12-10T07:21:48.085Z,99.99
2018-12-10T07:22:33.434Z,99.99
2018-12-10T07:23:33.547Z,99.99
2018-12-10T07:24:33.463Z,99.99
2018-12-10T07:25:33.492Z,99.99
2018-12-10T07:26:33.494Z,99.99
2018-12-10T07:27:33.509Z,99.99
2018-12-10T07:28:33.524Z,99.99
2018-12-10T07:31:33.569Z,99.99
2018-12-10T07:32:33.591Z,99.99
2018-12-10T07:34:33.616Z,99.99
2018-12-10T07:35:33.683Z,99.99
2018-12-10T07:36:33.648Z,99.99
2018-12-10T07:37:48.328Z,99.99
2018-12-10T07:38:33.679Z,99.99
2018-12-10T07:39:33.707Z,99.99
2018-12-10T07:40:33.712Z,99.99
2018-12-10T07:41:33.730Z,99.99
2018-12-10T07:42:33.742Z,99.99
2018-12-10T07:43:33.756Z,99.99
2018-12-10T07:44:33.769Z,99.99
2018-12-10T07:45:33.786Z,99.99
2018-12-10T07:46:33.804Z,99.99
2018-12-10T07:47:33.823Z,99.99
2018-12-10T07:48:33.832Z,99.99
2018-12-10T07:49:33.848Z,99.99
2018-12-10T07:50:33.864Z,99.99
2018-12-10T07:51:33.879Z,99.99
2018-12-10T07:52:33.895Z,99.99
2018-12-10T07:53:48.569Z,99.99
2018-12-10T07:54:33.924Z,99.99
2018-12-10T07:55:33.938Z,99.99
2018-12-10T07:56:33.954Z,99.99
2018-12-10T07:57:33.971Z,99.99
2018-12-10T07:58:33.989Z,99.99
2018-12-10T07:59:34.000Z,99.99
2018-12-10T08:00:34.013Z,99.99
2018-12-10T08:01:34.032Z,99.99
2018-12-10T08:02:34.052Z,99.99
2018-12-10T08:03:34.058Z,99.99
2018-12-10T08:04:34.079Z,99.99
2018-12-10T08:05:34.094Z,99.97
2018-12-10T08:06:34.110Z,99.99
2018-12-10T08:07:34.123Z,99.99
2018-12-10T08:08:50.239Z,99.99
2018-12-10T08:09:34.255Z,99.99
2018-12-10T08:10:34.174Z,99.99
2018-12-10T08:11:34.183Z,99.99
2018-12-10T08:12:34.203Z,99.99
2018-12-10T08:13:34.216Z,99.99
2018-12-10T08:14:34.234Z,99.99
2018-12-10T08:15:34.249Z,99.99
2018-12-10T08:16:34.312Z,99.99
2018-12-10T08:17:34.278Z,99.87
2018-12-10T08:19:34.309Z,99.3
2018-12-10T08:20:34.324Z,99.58
2018-12-10T08:21:34.338Z,99.58
2018-12-10T08:22:34.355Z,99.3
2018-12-10T08:23:34.592Z,99.97
2018-12-10T08:24:34.388Z,99.97
2018-12-10T08:25:34.403Z,99.4
2018-12-10T08:26:34.417Z,99.68
2018-12-10T08:27:34.430Z,98.92
2018-12-10T08:28:34.494Z,98.83
2018-12-10T08:30:34.480Z,98.83
2018-12-10T08:31:34.586Z,99.4
2018-12-10T08:32:34.563Z,99.4
2018-12-10T08:33:34.522Z,99.21
2018-12-10T08:34:41.319Z,99.11
2018-12-10T08:35:43.206Z,98.16
2018-12-10T08:36:34.567Z,98.07
2018-12-10T08:37:34.592Z,97.69
2018-12-10T08:38:34.599Z,98.16
2018-12-10T08:39:34.616Z,97.97
2018-12-10T08:40:49.293Z,98.07
2018-12-10T08:41:34.648Z,97.88
2018-12-10T08:42:34.660Z,98.54
2018-12-10T08:43:34.682Z,98.64
2018-12-10T08:44:34.698Z,98.83
2018-12-10T08:45:34.707Z,98.83
2018-12-10T08:46:34.724Z,98.73
2018-12-10T08:47:34.743Z,99.02
2018-12-10T08:48:34.752Z,98.54
2018-12-10T08:49:34.768Z,99.02
2018-12-10T08:50:34.784Z,98.83
2018-12-10T08:51:34.803Z,98.45
2018-12-10T08:52:34.865Z,98.54
2018-12-10T08:53:34.833Z,98.92
2018-12-10T08:54:34.896Z,98.35
2018-12-10T08:55:34.862Z,98.45
2018-12-10T08:56:49.540Z,98.64
2018-12-10T08:57:34.896Z,98.49
2018-12-10T08:58:34.911Z,98.45
2018-12-10T08:59:34.933Z,97.83
2018-12-10T09:00:34.943Z,97.74
2018-12-10T09:01:34.955Z,97.83
2018-12-10T09:02:34.971Z,97.74
2018-12-10T09:03:34.988Z,97.92
2018-12-10T09:04:36.679Z,97.74
2018-12-10T09:05:35.024Z,98.3
2018-12-10T09:06:35.035Z,97.5
2018-12-10T09:07:35.099Z,97.5
2018-12-10T09:08:35.070Z,97.31
2018-12-10T09:10:37.161Z,97.41
2018-12-10T09:11:35.112Z,97.02
2018-12-10T09:12:49.788Z,96.64
2018-12-10T09:13:35.147Z,96.17
2018-12-10T09:14:35.164Z,96.08
2018-12-10T09:15:35.175Z,96.36
2018-12-10T09:16:35.191Z,96.26
2018-12-10T09:17:35.211Z,96.36
2018-12-10T09:18:35.224Z,96.36
2018-12-10T09:19:35.238Z,95.84
2018-12-10T09:20:35.255Z,95.6
2018-12-10T09:21:35.273Z,95.7
2018-12-10T09:22:35.285Z,96.26
2018-12-10T09:23:35.301Z,96.26
2018-12-10T09:24:35.317Z,96.26
2018-12-10T09:25:35.333Z,96.26
2018-12-10T09:26:35.355Z,96.26
2018-12-10T09:27:35.362Z,96.17
2018-12-10T09:28:50.043Z,95.89
2018-12-10T09:29:35.533Z,96.26
2018-12-10T09:30:35.411Z,96.26
2018-12-10T09:31:35.424Z,95.79
2018-12-10T09:32:35.443Z,95.79
2018-12-10T09:33:35.458Z,95.22
2018-12-10T09:34:35.478Z,95.31
2018-12-10T09:35:35.495Z,95.03
2018-12-10T09:36:35.507Z,95.31
2018-12-10T09:37:35.526Z,96.17
2018-12-10T09:38:35.536Z,95.51
2018-12-10T09:39:35.554Z,94.93
2018-12-10T09:40:35.570Z,94.46
2018-12-10T09:41:35.590Z,95.12
2018-12-10T09:42:35.654Z,95.12
2018-12-10T09:43:50.280Z,95.22
2018-12-10T09:44:35.635Z,96.08
2018-12-10T09:45:35.647Z,95.51
2018-12-10T09:46:35.667Z,95.41
2018-12-10T09:47:35.683Z,95.41
2018-12-10T09:48:35.796Z,94.93
2018-12-10T09:49:35.713Z,95.41
2018-12-10T09:50:35.727Z,94.74
2018-12-10T09:51:35.757Z,94.84
2018-12-10T09:52:35.759Z,94.65
2018-12-10T09:53:35.779Z,94.93
2018-12-10T09:55:35.818Z,94.93
2018-12-10T09:56:35.825Z,95.12
2018-12-10T09:57:35.838Z,95.03
2018-12-10T09:58:35.907Z,94.56
2018-12-10T09:59:35.874Z,94.65
2018-12-10T10:00:35.889Z,94.7
2018-12-10T10:01:35.904Z,94.65
2018-12-10T10:02:36.021Z,94.32
2018-12-10T10:03:35.935Z,94.27
2018-12-10T10:04:35.951Z,94.27
2018-12-10T10:05:35.977Z,94.65
2018-12-10T10:06:35.983Z,94.84
2018-12-10T10:08:36.015Z,93.8
2018-12-10T10:10:36.051Z,94.65
2018-12-10T10:11:36.063Z,93.84
2018-12-10T10:12:36.082Z,93.46
2018-12-10T10:13:36.100Z,93.23
2018-12-10T10:14:36.114Z,93.32
2018-12-10T10:15:50.789Z,93.51
2018-12-10T10:16:36.191Z,93.8
2018-12-10T10:17:36.259Z,93.32
2018-12-10T10:18:36.175Z,93.27
2018-12-10T10:19:36.196Z,92.8
2018-12-10T10:20:36.209Z,92.23
2018-12-10T10:21:36.271Z,92.99
2018-12-10T10:22:36.238Z,92.51
2018-12-10T10:23:36.254Z,92.9
2018-12-10T10:24:36.275Z,92.32
2018-12-10T10:25:36.286Z,92.61
2018-12-10T10:26:36.314Z,92.13
2018-12-10T10:27:36.324Z,92.61
2018-12-10T10:28:36.336Z,93.18
2018-12-10T10:29:36.354Z,93.27
2018-12-10T10:30:36.417Z,93.27
2018-12-10T10:31:51.045Z,93.08
2018-12-10T10:32:36.549Z,92.51
2018-12-10T10:33:36.416Z,92.32
2018-12-10T10:34:36.497Z,92.51
2018-12-10T10:35:36.447Z,92.13
2018-12-10T10:36:36.462Z,91.66
2018-12-10T10:37:36.492Z,91.94
2018-12-10T10:38:36.497Z,92.04
2018-12-10T10:39:36.511Z,92.71
2018-12-10T10:40:36.530Z,92.8
2018-12-10T10:41:36.547Z,92.23
2018-12-10T10:42:36.563Z,91.85
2018-12-10T10:43:36.577Z,92.04
2018-12-10T10:44:36.646Z,91.66
2018-12-10T10:45:37.460Z,91.66
2018-12-10T10:46:36.698Z,91.94
2018-12-10T10:47:51.304Z,91.56
2018-12-10T10:48:36.655Z,91.38
2018-12-10T10:49:36.725Z,91.09
2018-12-10T10:50:36.689Z,91.56
2018-12-10T10:51:36.708Z,91.56
2018-12-10T10:52:36.729Z,90.99
2018-12-10T10:53:36.737Z,90.42
2018-12-10T10:55:36.769Z,90.61
2018-12-10T10:56:36.785Z,90
2018-12-10T10:59:36.835Z,90.42
2018-12-10T11:00:36.911Z,90.42
2018-12-10T11:02:36.882Z,90.52
2018-12-10T11:03:51.572Z,90.8
2018-12-10T11:04:40.271Z,90.33
2018-12-10T11:05:36.931Z,90.52
2018-12-10T11:06:36.948Z,90.33
2018-12-10T11:07:36.964Z,90.47
2018-12-10T11:09:36.998Z,89.95
2018-12-10T11:10:37.020Z,89.86
2018-12-10T11:11:37.028Z,89.67
2018-12-10T11:12:37.046Z,90.8
2018-12-10T11:13:37.111Z,90.99
2018-12-10T11:14:37.079Z,90.9
2018-12-10T11:15:37.094Z,90.99
2018-12-10T11:16:37.111Z,90.9
2018-12-10T11:17:37.127Z,90.99
2018-12-10T11:18:51.805Z,92.04
2018-12-10T11:19:37.160Z,92.04
2018-12-10T11:20:37.172Z,91.66
2018-12-10T11:21:37.193Z,90.8
2018-12-10T11:22:37.207Z,90.52
2018-12-10T11:23:37.226Z,90.99
2018-12-10T11:24:37.242Z,90.99
2018-12-10T11:25:37.255Z,90.52
2018-12-10T11:26:37.272Z,91.09
2018-12-10T11:27:37.288Z,90.9
2018-12-10T11:28:37.302Z,91.19
2018-12-10T11:29:37.322Z,91.09
2018-12-10T11:30:37.390Z,90.42
2018-12-10T11:31:37.352Z,91.38
2018-12-10T11:32:37.369Z,90.9
2018-12-10T11:33:37.386Z,91.28
2018-12-10T11:34:37.401Z,90.23
2018-12-10T11:35:37.420Z,90.8
2018-12-10T11:36:37.486Z,90.9
2018-12-10T11:37:37.448Z,90.9
2018-12-10T11:38:37.467Z,91.75
2018-12-10T11:39:37.484Z,91.19
2018-12-10T11:40:37.500Z,91.09
2018-12-10T11:41:37.514Z,90.42
2018-12-10T11:42:37.531Z,90.9
2018-12-10T11:43:37.547Z,90.71
2018-12-10T11:44:37.612Z,91.09
2018-12-10T11:45:37.577Z,90.99
2018-12-10T11:46:37.598Z,90.99
2018-12-10T11:47:37.610Z,90.42
2018-12-10T11:48:37.625Z,91.38
2018-12-10T11:49:37.641Z,90.9
2018-12-10T11:50:52.319Z,90.9
2018-12-10T11:51:37.672Z,90.52
2018-12-10T11:52:37.696Z,90.52
2018-12-10T11:53:37.705Z,90.42
2018-12-10T11:54:37.725Z,90.23
2018-12-10T11:55:37.738Z,90.52
2018-12-10T11:56:37.757Z,90.52
2018-12-10T11:57:37.767Z,90.71
2018-12-10T11:58:37.787Z,90.52
2018-12-10T11:59:37.802Z,90.14
2018-12-10T12:01:37.838Z,90.61
2018-12-10T12:02:37.859Z,90.99
2018-12-10T12:03:37.867Z,90.8
2018-12-10T12:04:37.882Z,90.33
2018-12-10T12:05:37.896Z,90.52
2018-12-10T12:06:52.575Z,90.71
2018-12-10T12:07:37.932Z,90.8
2018-12-10T12:08:37.945Z,90.52
2018-12-10T12:09:37.959Z,90.9
2018-12-10T12:10:37.976Z,90.33
2018-12-10T12:11:37.992Z,91.09
2018-12-10T12:12:37.811Z,90.9
2018-12-10T12:13:38.026Z,90.38
2018-12-10T12:14:38.042Z,91.14
2018-12-10T12:15:38.054Z,90.95
2018-12-10T12:16:38.075Z,90.8
2018-12-10T12:17:38.090Z,91.33
2018-12-10T12:18:38.155Z,91.61
2018-12-10T12:19:37.870Z,90.99
2018-12-10T12:20:38.133Z,91.52
2018-12-10T12:21:38.203Z,91.24
2018-12-10T12:22:52.830Z,91.24
2018-12-10T12:23:38.235Z,91.33
2018-12-10T12:24:38.204Z,91.42
2018-12-10T12:25:38.219Z,91.8
2018-12-10T12:26:38.229Z,91.61
2018-12-10T12:27:38.246Z,92.09
2018-12-10T12:28:38.263Z,91.61
2018-12-10T12:29:38.277Z,91.38
2018-12-10T12:30:38.291Z,91.52
2018-12-10T12:31:38.307Z,91.19
2018-12-10T12:32:38.374Z,91.38
2018-12-10T12:33:38.441Z,91.09
2018-12-10T12:34:38.359Z,91.56
2018-12-10T12:35:38.370Z,91.28
2018-12-10T12:36:38.413Z,91.19
2018-12-10T12:37:38.403Z,90.9
2018-12-10T12:38:53.079Z,91.28
2018-12-10T12:39:38.435Z,91.8
2018-12-10T12:40:38.452Z,92.13
2018-12-10T12:41:38.477Z,92.42
2018-12-10T12:42:38.482Z,92.04
2018-12-10T12:43:38.496Z,91.33
2018-12-10T12:44:38.512Z,91.8
2018-12-10T12:45:38.529Z,91.56
2018-12-10T12:46:38.546Z,92.75
2018-12-10T12:47:38.561Z,92.42
2018-12-10T12:48:38.575Z,92.37
2018-12-10T12:49:38.594Z,92.75
2018-12-10T12:50:38.611Z,92.42
2018-12-10T12:52:38.644Z,91.61
2018-12-10T12:53:53.422Z,91.33
2018-12-10T12:54:38.653Z,91.99
2018-12-10T12:55:38.687Z,92.66
2018-12-10T12:56:38.704Z,92.32
2018-12-10T12:57:38.770Z,92.23
2018-12-10T12:58:38.737Z,91.89
2018-12-10T12:59:38.749Z,92.32
2018-12-10T13:00:44.386Z,91.94
2018-12-10T13:01:38.782Z,91.75
2018-12-10T13:02:38.802Z,91.09
2018-12-10T13:03:38.817Z,91.09
2018-12-10T13:04:38.886Z,91.38
2018-12-10T13:05:38.847Z,91.61
2018-12-10T13:06:38.864Z,92.18
2018-12-10T13:07:38.875Z,93.23
2018-12-10T13:08:38.898Z,93.89
2018-12-10T13:09:39.014Z,95.22
2018-12-10T13:10:39.011Z,96.83
2018-12-10T13:12:38.955Z,99.97
2018-12-10T13:13:39.095Z,99.99
2018-12-10T13:14:38.988Z,99.99
2018-12-10T13:15:39.003Z,99.99
2018-12-10T13:16:39.104Z,99.99
2018-12-10T13:17:39.035Z,99.99
2018-12-10T13:18:39.050Z,99.99
2018-12-10T13:19:39.066Z,99.99
2018-12-10T13:20:39.089Z,99.99
2018-12-10T13:21:39.099Z,99.99
2018-12-10T13:22:47.053Z,99.99
2018-12-10T13:23:39.132Z,99.99
2018-12-10T13:24:39.145Z,99.99
2018-12-10T13:25:53.820Z,99.99
2018-12-10T13:26:39.182Z,99.99
2018-12-10T13:27:39.200Z,99.99
2018-12-10T13:28:39.306Z,99.99
2018-12-10T13:29:39.238Z,99.99
2018-12-10T13:30:39.514Z,99.99
2018-12-10T13:31:39.254Z,99.99
2018-12-10T13:32:39.267Z,99.99
2018-12-10T13:33:39.283Z,99.99
2018-12-10T13:34:39.303Z,99.99
2018-12-10T13:35:39.322Z,99.82
2018-12-10T13:36:39.413Z,99.58